Time;durP1;ratioP1;P1;durP2;ratioP2;P2;SDS_P1;SDS_P2;PMS_P1;PMS_P2;Temp;Humidity;BMP_temperature;BMP_pressure;BME280_temperature;BME280_humidity;BME280_pressure;Samples;Min_cycle;Max_cycle;Signal;HPM_P1;HPM_P2
2021/06/18 00:00:26;;;;;;;2.40;1.20;;;;;;;;;;5105971;28;20050;-57
2021/06/18 00:02:52;;;;;;;2.40;0.93;;;;;;;;;;5102282;28;20356;-56
2021/06/18 00:05:17;;;;;;;2.05;1.05;;;;;;;;;;5111194;28;20022;-56
2021/06/18 00:07:43;;;;;;;4.38;0.98;;;;;;;;;;5112081;28;20077;-55
2021/06/18 00:10:09;;;;;;;1.80;1.02;;;;;;;;;;5111956;28;20095;-56
2021/06/18 00:12:35;;;;;;;2.03;1.13;;;;;;;;;;5102898;28;20122;-57
2021/06/18 00:15:00;;;;;;;2.67;1.27;;;;;;;;;;5099212;28;20042;-56
2021/06/18 00:17:26;;;;;;;3.35;1.30;;;;;;;;;;5110694;28;20034;-55
2021/06/18 00:19:51;;;;;;;2.85;1.15;;;;;;;;;;5111983;28;20016;-55
2021/06/18 00:22:16;;;;;;;3.43;1.10;;;;;;;;;;5097390;28;20530;-56
2021/06/18 00:24:42;;;;;;;1.97;1.30;;;;;;;;;;5104257;28;20292;-56
2021/06/18 00:27:07;;;;;;;4.77;1.50;;;;;;;;;;5106314;28;20269;-56
2021/06/18 00:29:32;;;;;;;2.67;1.20;;;;;;;;;;5103833;28;20276;-55
2021/06/18 00:31:57;;;;;;;2.42;1.40;;;;;;;;;;5091568;28;20099;-56
2021/06/18 00:34:22;;;;;;;6.78;1.52;;;;;;;;;;5109215;28;20027;-55
2021/06/18 00:36:48;;;;;;;3.50;1.27;;;;;;;;;;5110751;28;20020;-56
2021/06/18 00:39:13;;;;;;;1.33;1.13;;;;;;;;;;5111618;28;20020;-55
2021/06/18 00:41:38;;;;;;;3.63;1.60;;;;;;;;;;5111943;28;20273;-56
2021/06/18 00:44:03;;;;;;;2.30;1.15;;;;;;;;;;5102711;28;20265;-55
2021/06/18 00:46:29;;;;;;;2.17;1.70;;;;;;;;;;5091708;28;20020;-57
2021/06/18 00:48:54;;;;;;;2.30;1.40;;;;;;;;;;5091129;28;20056;-56
2021/06/18 00:51:20;;;;;;;2.38;0.90;;;;;;;;;;5109424;28;20028;-54
2021/06/18 00:53:46;;;;;;;3.55;1.30;;;;;;;;;;5107663;28;20035;-57
2021/06/18 00:56:11;;;;;;;1.45;1.30;;;;;;;;;;5091950;28;20024;-57
2021/06/18 00:58:36;;;;;;;1.48;0.95;;;;;;;;;;5094725;28;20042;-57
2021/06/18 01:01:02;;;;;;;3.80;1.38;;;;;;;;;;5103728;28;20399;-55
2021/06/18 01:03:27;;;;;;;2.35;1.50;;;;;;;;;;5088668;28;20031;-55
2021/06/18 01:05:52;;;;;;;3.67;1.60;;;;;;;;;;5100614;28;20024;-55
2021/06/18 01:08:44;;;;;;;1.63;1.30;;;;;;;;;;5094918;28;20270;-55
2021/06/18 01:11:26;;;;;;;4.57;1.33;;;;;;;;;;5092577;28;20115;-57
2021/06/18 01:13:57;;;;;;;3.17;1.13;;;;;;;;;;5096646;28;20016;-55
2021/06/18 01:16:33;;;;;;;1.58;1.20;;;;;;;;;;5097625;28;20020;-55
2021/06/18 01:19:07;;;;;;;2.40;1.27;;;;;;;;;;5114052;28;20055;-53
2021/06/18 01:21:35;;;;;;;3.05;1.10;;;;;;;;;;5103836;28;20106;-56
2021/06/18 01:24:00;;;;;;;2.72;1.45;;;;;;;;;;5110904;28;20482;-56
2021/06/18 01:26:33;;;;;;;2.00;1.30;;;;;;;;;;5097264;28;20071;-53
2021/06/18 01:29:00;;;;;;;2.97;1.35;;;;;;;;;;5094560;28;20261;-57
2021/06/18 01:31:27;;;;;;;2.63;1.20;;;;;;;;;;5095781;28;20467;-56
2021/06/18 01:33:58;;;;;;;1.55;1.40;;;;;;;;;;5093361;28;20035;-56
2021/06/18 01:36:24;;;;;;;1.75;1.40;;;;;;;;;;5096141;28;20020;-55
2021/06/18 01:38:50;;;;;;;2.17;1.30;;;;;;;;;;5113636;28;20410;-54
2021/06/18 01:41:18;;;;;;;2.80;1.42;;;;;;;;;;5107649;28;20070;-57
2021/06/18 01:43:44;;;;;;;3.78;1.75;;;;;;;;;;5092047;28;20031;-56
2021/06/18 01:46:11;;;;;;;3.15;1.40;;;;;;;;;;5094902;28;20024;-56
2021/06/18 01:48:37;;;;;;;2.17;1.27;;;;;;;;;;5094201;28;20089;-56
2021/06/18 01:51:03;;;;;;;3.13;1.10;;;;;;;;;;5108536;28;20023;-55
2021/06/18 01:53:30;;;;;;;2.28;1.52;;;;;;;;;;5106544;28;20081;-57
2021/06/18 01:55:56;;;;;;;2.85;1.48;;;;;;;;;;5100216;28;20470;-54
2021/06/18 01:58:21;;;;;;;2.45;1.27;;;;;;;;;;5094406;28;20016;-55
2021/06/18 02:00:48;;;;;;;3.20;1.30;;;;;;;;;;5094840;28;20039;-57
2021/06/18 02:03:18;;;;;;;3.65;1.45;;;;;;;;;;5111216;28;20031;-57
2021/06/18 02:05:44;;;;;;;1.25;1.15;;;;;;;;;;5111790;28;20509;-56
2021/06/18 02:08:10;;;;;;;3.85;1.63;;;;;;;;;;5094166;28;20028;-56
2021/06/18 02:10:36;;;;;;;2.35;1.38;;;;;;;;;;5093975;28;20054;-56
2021/06/18 02:13:04;;;;;;;2.30;1.02;;;;;;;;;;5091362;28;20012;-57
2021/06/18 02:15:30;;;;;;;5.57;1.88;;;;;;;;;;5096669;28;20078;-57
2021/06/18 02:17:56;;;;;;;3.55;1.65;;;;;;;;;;5093289;28;20189;-56
2021/06/18 02:20:21;;;;;;;2.30;1.45;;;;;;;;;;5108727;28;20016;-57
2021/06/18 02:22:48;;;;;;;3.75;1.45;;;;;;;;;;5092207;28;20340;-56
2021/06/18 02:25:14;;;;;;;1.92;1.58;;;;;;;;;;5094079;28;20012;-56
2021/06/18 02:27:40;;;;;;;1.98;1.55;;;;;;;;;;5095394;28;20077;-55
2021/06/18 02:30:06;;;;;;;2.08;1.30;;;;;;;;;;5105462;28;20028;-56
2021/06/18 02:32:32;;;;;;;2.40;1.30;;;;;;;;;;5102489;28;20038;-57
2021/06/18 02:34:57;;;;;;;3.40;2.38;;;;;;;;;;5109587;28;20023;-56
2021/06/18 02:37:23;;;;;;;3.63;2.00;;;;;;;;;;5113722;28;20461;-55
2021/06/18 02:39:48;;;;;;;2.60;1.48;;;;;;;;;;5108238;28;20387;-57
2021/06/18 02:42:14;;;;;;;3.13;1.83;;;;;;;;;;5091055;28;20020;-57
2021/06/18 02:44:39;;;;;;;3.95;1.77;;;;;;;;;;5094638;28;20043;-56
2021/06/18 02:47:05;;;;;;;2.65;1.40;;;;;;;;;;5113726;28;20038;-56
2021/06/18 02:49:40;;;;;;;2.53;1.60;;;;;;;;;;5112637;28;20024;-57
2021/06/18 02:52:07;;;;;;;1.98;1.50;;;;;;;;;;5112228;28;20031;-56
2021/06/18 02:54:35;;;;;;;3.17;1.80;;;;;;;;;;5111240;28;20167;-56
2021/06/18 02:57:07;;;;;;;1.98;1.60;;;;;;;;;;5111107;28;20586;-54
2021/06/18 02:59:41;;;;;;;1.60;1.35;;;;;;;;;;5112898;28;20103;-57
2021/06/18 03:02:09;;;;;;;3.77;1.50;;;;;;;;;;5095015;28;20035;-56
2021/06/18 03:04:37;;;;;;;1.50;1.40;;;;;;;;;;5091927;28;20020;-56
2021/06/18 03:07:06;;;;;;;2.63;1.80;;;;;;;;;;5092992;28;20132;-57
2021/06/18 03:09:33;;;;;;;4.85;1.63;;;;;;;;;;5095961;28;20019;-56
2021/06/18 03:12:00;;;;;;;3.05;1.60;;;;;;;;;;5104801;28;20055;-56
2021/06/18 03:14:27;;;;;;;2.75;1.83;;;;;;;;;;5111528;28;20008;-56
2021/06/18 03:16:57;;;;;;;4.07;1.60;;;;;;;;;;5113657;27;20107;-57
2021/06/18 03:19:25;;;;;;;1.98;1.75;;;;;;;;;;5112354;28;20493;-56
2021/06/18 03:21:51;;;;;;;3.67;1.50;;;;;;;;;;5099155;28;20035;-54
2021/06/18 03:24:17;;;;;;;1.77;1.50;;;;;;;;;;5103104;28;20435;-58
2021/06/18 03:26:43;;;;;;;2.28;1.77;;;;;;;;;;5092975;28;20109;-57
2021/06/18 03:29:09;;;;;;;2.90;1.70;;;;;;;;;;5091481;28;20049;-55
2021/06/18 03:31:35;;;;;;;1.92;1.60;;;;;;;;;;5092783;28;20420;-56
2021/06/18 03:34:01;;;;;;;2.05;1.60;;;;;;;;;;5089736;28;20420;-56
2021/06/18 03:36:27;;;;;;;2.35;1.60;;;;;;;;;;5092401;28;20019;-56
2021/06/18 03:38:53;;;;;;;3.47;1.92;;;;;;;;;;5102589;28;20497;-56
2021/06/18 03:41:19;;;;;;;3.05;2.08;;;;;;;;;;5108663;28;20023;-55
2021/06/18 03:43:45;;;;;;;2.72;1.85;;;;;;;;;;5109928;28;20535;-57
2021/06/18 03:46:10;;;;;;;3.67;1.80;;;;;;;;;;5112664;28;20026;-56
2021/06/18 03:48:36;;;;;;;1.88;1.63;;;;;;;;;;5112034;28;20416;-55
2021/06/18 03:51:01;;;;;;;2.75;1.65;;;;;;;;;;5111817;28;20023;-56
2021/06/18 03:53:27;;;;;;;5.28;1.58;;;;;;;;;;5101775;28;20076;-54
2021/06/18 03:55:52;;;;;;;2.70;1.52;;;;;;;;;;5112597;28;20103;-55
2021/06/18 03:58:20;;;;;;;2.00;1.80;;;;;;;;;;5108110;28;20467;-54
2021/06/18 04:00:47;;;;;;;2.10;1.83;;;;;;;;;;5098074;28;20429;-56
2021/06/18 04:03:12;;;;;;;3.03;1.77;;;;;;;;;;5089138;28;20486;-55
2021/06/18 04:05:39;;;;;;;3.78;1.77;;;;;;;;;;5091947;28;20016;-53
2021/06/18 04:08:05;;;;;;;2.55;1.63;;;;;;;;;;5093443;28;20039;-55
2021/06/18 04:10:31;;;;;;;3.08;1.88;;;;;;;;;;5102494;28;20024;-57
2021/06/18 04:12:57;;;;;;;2.05;1.63;;;;;;;;;;5088853;28;20016;-57
2021/06/18 04:15:22;;;;;;;3.35;1.63;;;;;;;;;;5091958;28;20041;-55
2021/06/18 04:17:48;;;;;;;3.72;1.65;;;;;;;;;;5091937;28;20463;-56
2021/06/18 04:20:14;;;;;;;3.78;1.40;;;;;;;;;;5103079;28;20592;-56
2021/06/18 04:22:39;;;;;;;3.47;1.90;;;;;;;;;;5090132;28;20031;-56
2021/06/18 04:25:05;;;;;;;2.83;1.50;;;;;;;;;;5112301;28;20104;-58
2021/06/18 04:27:32;;;;;;;3.13;1.60;;;;;;;;;;5112195;28;20026;-57
2021/06/18 04:29:57;;;;;;;2.00;1.77;;;;;;;;;;5099488;28;20475;-56
2021/06/18 04:32:22;;;;;;;1.95;1.60;;;;;;;;;;5099827;28;20016;-57
2021/06/18 04:34:47;;;;;;;2.05;1.48;;;;;;;;;;5112030;28;20011;-57
2021/06/18 04:37:13;;;;;;;2.30;2.08;;;;;;;;;;5095312;28;20020;-57
2021/06/18 04:39:38;;;;;;;4.05;2.22;;;;;;;;;;5093691;28;20103;-56
2021/06/18 04:42:04;;;;;;;5.30;2.33;;;;;;;;;;5114684;28;20037;-55
2021/06/18 04:44:30;;;;;;;3.20;2.08;;;;;;;;;;5112563;28;20051;-57
2021/06/18 04:46:55;;;;;;;5.85;1.65;;;;;;;;;;5114358;28;20062;-57
2021/06/18 04:49:20;;;;;;;5.40;2.03;;;;;;;;;;5104566;28;20490;-55
2021/06/18 04:51:45;;;;;;;2.50;1.63;;;;;;;;;;5099421;28;20032;-56
2021/06/18 04:54:11;;;;;;;3.35;1.98;;;;;;;;;;5100426;28;20032;-57
2021/06/18 04:56:40;;;;;;;4.40;2.20;;;;;;;;;;5095285;28;20038;-54
2021/06/18 04:59:05;;;;;;;2.63;1.88;;;;;;;;;;5096782;28;20050;-57
2021/06/18 05:01:31;;;;;;;2.30;1.67;;;;;;;;;;5110269;28;20043;-56
2021/06/18 05:03:56;;;;;;;2.08;1.85;;;;;;;;;;5110663;27;20028;-56
2021/06/18 05:06:21;;;;;;;5.05;1.77;;;;;;;;;;5114309;28;20027;-57
2021/06/18 05:08:47;;;;;;;3.58;1.85;;;;;;;;;;5113920;28;20474;-57
2021/06/18 05:11:12;;;;;;;2.30;2.03;;;;;;;;;;5108332;28;20011;-56
2021/06/18 05:13:37;;;;;;;3.88;1.65;;;;;;;;;;5099044;28;20028;-55
2021/06/18 05:16:02;;;;;;;2.33;1.87;;;;;;;;;;5109928;28;20146;-56
2021/06/18 05:18:28;;;;;;;3.17;1.83;;;;;;;;;;5093820;28;20612;-57
2021/06/18 05:20:53;;;;;;;7.72;2.20;;;;;;;;;;5110899;28;20031;-56
2021/06/18 05:23:18;;;;;;;4.80;1.67;;;;;;;;;;5108175;27;20039;-56
2021/06/18 05:25:44;;;;;;;5.05;1.58;;;;;;;;;;5107585;28;20032;-55
2021/06/18 05:28:09;;;;;;;5.88;1.90;;;;;;;;;;5114607;28;20020;-54
2021/06/18 05:30:34;;;;;;;7.57;2.22;;;;;;;;;;5106265;28;20020;-56
2021/06/18 05:32:59;;;;;;;5.05;1.83;;;;;;;;;;5107938;28;20024;-56
2021/06/18 05:35:25;;;;;;;2.78;1.88;;;;;;;;;;5106935;28;20458;-57
2021/06/18 05:37:51;;;;;;;5.55;1.83;;;;;;;;;;5112082;28;20011;-56
2021/06/18 05:40:16;;;;;;;4.10;1.77;;;;;;;;;;5107755;28;20458;-56
2021/06/18 05:42:41;;;;;;;4.57;1.83;;;;;;;;;;5090898;28;20031;-55
2021/06/18 05:45:07;;;;;;;3.58;1.45;;;;;;;;;;5112560;28;20517;-57
2021/06/18 05:47:32;;;;;;;3.65;1.48;;;;;;;;;;5108769;28;20431;-55
2021/06/18 05:49:58;;;;;;;5.72;2.47;;;;;;;;;;5100558;28;20016;-54
2021/06/18 05:52:23;;;;;;;2.70;1.45;;;;;;;;;;5107939;28;20019;-58
2021/06/18 05:54:48;;;;;;;2.33;1.48;;;;;;;;;;5108108;28;20019;-56
2021/06/18 05:57:14;;;;;;;5.43;1.70;;;;;;;;;;5097760;28;20453;-57
2021/06/18 05:59:39;;;;;;;4.60;1.85;;;;;;;;;;5099523;28;20803;-54
2021/06/18 06:02:04;;;;;;;4.30;1.80;;;;;;;;;;5108135;28;20026;-53
2021/06/18 06:04:29;;;;;;;6.00;1.75;;;;;;;;;;5111082;28;20022;-56
2021/06/18 06:06:55;;;;;;;4.78;1.45;;;;;;;;;;5094332;28;20024;-55
2021/06/18 06:09:20;;;;;;;3.42;1.50;;;;;;;;;;5110151;28;20023;-54
2021/06/18 06:11:45;;;;;;;3.67;1.80;;;;;;;;;;5099048;28;20063;-55
2021/06/18 06:14:16;;;;;;;4.00;1.67;;;;;;;;;;5095735;28;20300;-57
2021/06/18 06:16:41;;;;;;;2.63;1.30;;;;;;;;;;5098976;28;20026;-57
2021/06/18 06:19:07;;;;;;;4.45;2.83;;;;;;;;;;5110868;28;20103;-56
2021/06/18 06:21:32;;;;;;;4.88;1.63;;;;;;;;;;5103962;28;20078;-57
2021/06/18 06:23:57;;;;;;;5.47;1.60;;;;;;;;;;5090348;28;20024;-56
2021/06/18 06:26:22;;;;;;;1.95;1.15;;;;;;;;;;5093461;28;20073;-55
2021/06/18 06:28:48;;;;;;;3.85;1.58;;;;;;;;;;5094649;28;20024;-56
2021/06/18 06:31:13;;;;;;;3.53;1.50;;;;;;;;;;5094217;28;20482;-56
2021/06/18 06:33:38;;;;;;;3.20;1.80;;;;;;;;;;5093756;28;20432;-56
2021/06/18 06:36:04;;;;;;;3.25;2.10;;;;;;;;;;5106572;28;20012;-56
2021/06/18 06:38:29;;;;;;;2.17;1.65;;;;;;;;;;5108178;28;20024;-57
2021/06/18 06:40:54;;;;;;;3.35;1.30;;;;;;;;;;5097291;28;20103;-57
2021/06/18 06:43:20;;;;;;;2.25;1.35;;;;;;;;;;5096824;28;20365;-55
2021/06/18 06:45:45;;;;;;;2.15;1.20;;;;;;;;;;5098947;28;20019;-57
2021/06/18 06:48:11;;;;;;;4.13;1.60;;;;;;;;;;5108927;28;20014;-57
2021/06/18 06:50:36;;;;;;;3.15;1.58;;;;;;;;;;5104230;28;20492;-56
2021/06/18 06:53:01;;;;;;;5.72;1.30;;;;;;;;;;5098916;28;20032;-56
2021/06/18 06:55:27;;;;;;;2.63;1.67;;;;;;;;;;5099894;28;20095;-54
2021/06/18 06:57:52;;;;;;;2.67;1.48;;;;;;;;;;5093426;28;20070;-53
2021/06/18 07:00:18;;;;;;;3.92;1.42;;;;;;;;;;5093010;28;20486;-56
2021/06/18 07:02:43;;;;;;;4.82;2.22;;;;;;;;;;5107903;28;20023;-55
2021/06/18 07:05:09;;;;;;;5.43;1.70;;;;;;;;;;5097993;28;20471;-57
2021/06/18 07:07:35;;;;;;;1.80;1.30;;;;;;;;;;5092285;28;20020;-55
2021/06/18 07:10:00;;;;;;;3.25;1.70;;;;;;;;;;5097126;28;20024;-56
2021/06/18 07:12:26;;;;;;;2.30;1.30;;;;;;;;;;5108586;28;20030;-56
2021/06/18 07:14:51;;;;;;;4.10;1.60;;;;;;;;;;5105353;28;20274;-56
2021/06/18 07:17:16;;;;;;;2.30;1.60;;;;;;;;;;5107406;28;20421;-56
2021/06/18 07:19:41;;;;;;;3.83;1.63;;;;;;;;;;5111533;28;20740;-57
2021/06/18 07:22:07;;;;;;;4.53;1.52;;;;;;;;;;5111033;28;20016;-56
2021/06/18 07:24:33;;;;;;;3.88;1.80;;;;;;;;;;5104531;28;20061;-57
2021/06/18 07:26:58;;;;;;;4.55;1.77;;;;;;;;;;5092032;28;20023;-55
2021/06/18 07:29:26;;;;;;;2.63;1.77;;;;;;;;;;5093263;28;20027;-56
2021/06/18 07:31:51;;;;;;;3.03;1.80;;;;;;;;;;5098236;28;20038;-56
2021/06/18 07:34:16;;;;;;;2.78;1.40;;;;;;;;;;5089680;28;20031;-53
2021/06/18 07:36:41;;;;;;;3.55;1.60;;;;;;;;;;5111841;28;20019;-55
2021/06/18 07:39:08;;;;;;;5.13;1.70;;;;;;;;;;5101911;28;20024;-55
2021/06/18 07:41:35;;;;;;;1.65;1.42;;;;;;;;;;5105842;27;20277;-55
2021/06/18 07:44:00;;;;;;;3.58;1.60;;;;;;;;;;5108176;28;20020;-53
2021/06/18 07:46:27;;;;;;;3.10;1.40;;;;;;;;;;5111403;28;20061;-57
2021/06/18 07:48:52;;;;;;;1.92;1.40;;;;;;;;;;5109467;28;20336;-56
2021/06/18 07:51:18;;;;;;;4.88;1.70;;;;;;;;;;5092678;28;20119;-57
2021/06/18 07:53:43;;;;;;;9.30;2.47;;;;;;;;;;5091356;28;20069;-56
2021/06/18 07:56:09;;;;;;;4.22;1.60;;;;;;;;;;5109166;28;20016;-55
2021/06/18 07:58:36;;;;;;;3.70;1.92;;;;;;;;;;5109283;28;20011;-56
2021/06/18 08:01:01;;;;;;;2.85;1.20;;;;;;;;;;5100935;28;20490;-56
2021/06/18 08:03:26;;;;;;;5.40;1.67;;;;;;;;;;5102108;28;20050;-54
2021/06/18 08:05:52;;;;;;;3.33;1.73;;;;;;;;;;5095969;28;20042;-56
2021/06/18 08:08:17;;;;;;;2.93;1.50;;;;;;;;;;5100848;28;20718;-56
2021/06/18 08:10:42;;;;;;;2.47;1.50;;;;;;;;;;5101743;28;20770;-57
2021/06/18 08:13:07;;;;;;;3.05;2.03;;;;;;;;;;5108138;28;20298;-56
2021/06/18 08:15:33;;;;;;;2.10;1.60;;;;;;;;;;5104431;28;20039;-56
2021/06/18 08:17:58;;;;;;;2.13;1.67;;;;;;;;;;5111097;28;20047;-57
2021/06/18 08:20:25;;;;;;;2.35;1.60;;;;;;;;;;5111052;28;20316;-56
2021/06/18 08:22:51;;;;;;;3.30;1.50;;;;;;;;;;5088689;28;20023;-57
2021/06/18 08:25:16;;;;;;;2.60;1.67;;;;;;;;;;5091870;28;20024;-57
2021/06/18 08:27:42;;;;;;;2.50;1.83;;;;;;;;;;5091954;28;20360;-56
2021/06/18 08:30:07;;;;;;;4.68;1.33;;;;;;;;;;5093167;28;20364;-58
2021/06/18 08:32:33;;;;;;;2.65;1.50;;;;;;;;;;5096590;28;20032;-56
2021/06/18 08:34:58;;;;;;;2.70;1.60;;;;;;;;;;5106399;28;20033;-56
2021/06/18 08:37:23;;;;;;;3.60;1.70;;;;;;;;;;5091562;28;20024;-57
2021/06/18 08:39:48;;;;;;;2.97;1.48;;;;;;;;;;5102881;28;20261;-57
2021/06/18 08:42:14;;;;;;;3.33;1.50;;;;;;;;;;5103506;28;20307;-57
2021/06/18 08:44:39;;;;;;;2.67;1.73;;;;;;;;;;5098054;28;20377;-56
2021/06/18 08:47:04;;;;;;;6.28;1.55;;;;;;;;;;5097765;28;20043;-57
2021/06/18 08:49:29;;;;;;;2.42;1.25;;;;;;;;;;5105053;28;20078;-56
2021/06/18 08:51:55;;;;;;;2.70;1.60;;;;;;;;;;5110333;28;20027;-55
2021/06/18 08:54:20;;;;;;;1.63;1.20;;;;;;;;;;5094307;28;20278;-56
2021/06/18 08:56:46;;;;;;;4.55;1.70;;;;;;;;;;5104356;28;20031;-56
2021/06/18 08:59:11;;;;;;;3.58;1.25;;;;;;;;;;5092873;28;20421;-55
2021/06/18 09:01:36;;;;;;;2.67;1.50;;;;;;;;;;5098918;28;20052;-53
2021/06/18 09:04:03;;;;;;;3.25;1.38;;;;;;;;;;5087993;28;20357;-57
2021/06/18 09:06:39;;;;;;;2.20;1.00;;;;;;;;;;5105495;28;20110;-54
2021/06/18 09:09:12;;;;;;;1.98;1.35;;;;;;;;;;5110502;28;20019;-56
2021/06/18 09:11:38;;;;;;;3.08;1.20;;;;;;;;;;5109492;28;20482;-56
2021/06/18 09:14:17;;;;;;;1.80;1.23;;;;;;;;;;5107697;28;20067;-57
2021/06/18 09:16:42;;;;;;;1.73;0.95;;;;;;;;;;5098668;28;20031;-57
2021/06/18 09:19:24;;;;;;;1.95;1.20;;;;;;;;;;5101291;28;20409;-56
2021/06/18 09:22:16;;;;;;;4.95;1.20;;;;;;;;;;5092207;28;20028;-57
2021/06/18 09:24:42;;;;;;;3.63;1.27;;;;;;;;;;5084120;28;20036;-57
2021/06/18 09:27:08;;;;;;;2.75;1.00;;;;;;;;;;5092521;28;20016;-57
2021/06/18 09:29:34;;;;;;;3.35;1.48;;;;;;;;;;5094299;28;20020;-54
2021/06/18 09:32:01;;;;;;;1.33;1.20;;;;;;;;;;5101317;28;20102;-56
2021/06/18 09:34:38;;;;;;;1.13;1.02;;;;;;;;;;5111765;28;20469;-55
2021/06/18 09:37:13;;;;;;;1.48;1.10;;;;;;;;;;5107157;28;20061;-57
2021/06/18 09:39:57;;;;;;;2.00;1.02;;;;;;;;;;5112523;28;20494;-54
2021/06/18 09:42:24;;;;;;;1.70;0.88;;;;;;;;;;5104221;28;20035;-57
2021/06/18 09:45:06;;;;;;;2.05;1.35;;;;;;;;;;5093825;28;20379;-56
2021/06/18 09:47:32;;;;;;;1.38;1.15;;;;;;;;;;5093763;28;20038;-55
2021/06/18 09:49:57;;;;;;;3.88;1.45;;;;;;;;;;5093184;28;20471;-55
2021/06/18 09:52:25;;;;;;;4.70;1.00;;;;;;;;;;5090921;28;20012;-56
2021/06/18 09:54:53;;;;;;;2.95;0.80;;;;;;;;;;5097385;28;20101;-55
2021/06/18 09:57:39;;;;;;;2.95;0.73;;;;;;;;;;5110438;28;20011;-56
2021/06/18 10:00:05;;;;;;;1.67;0.75;;;;;;;;;;5104626;28;20040;-54
2021/06/18 10:02:47;;;;;;;1.23;0.63;;;;;;;;;;5102006;28;20465;-57
2021/06/18 10:05:13;;;;;;;1.30;0.60;;;;;;;;;;5092917;28;20497;-57
2021/06/18 10:07:39;;;;;;;5.97;1.20;;;;;;;;;;5093460;28;20107;-57
2021/06/18 10:10:09;;;;;;;1.30;0.60;;;;;;;;;;5111173;28;20516;-57
2021/06/18 10:12:34;;;;;;;2.22;0.90;;;;;;;;;;5110970;28;20082;-55
2021/06/18 10:15:06;;;;;;;2.50;1.00;;;;;;;;;;5112789;28;20483;-56
2021/06/18 10:17:31;;;;;;;2.78;0.75;;;;;;;;;;5098633;28;20021;-56
2021/06/18 10:19:57;;;;;;;2.92;0.82;;;;;;;;;;5110559;28;20020;-57
2021/06/18 10:22:22;;;;;;;0.98;0.60;;;;;;;;;;5094837;28;20024;-57
2021/06/18 10:24:54;;;;;;;1.63;1.25;;;;;;;;;;5092711;28;20045;-56
2021/06/18 10:27:26;;;;;;;5.05;0.75;;;;;;;;;;5097068;28;20107;-56
2021/06/18 10:29:51;;;;;;;1.60;0.60;;;;;;;;;;5096707;28;20145;-57
2021/06/18 10:32:29;;;;;;;1.15;0.60;;;;;;;;;;5101223;28;20111;-57
2021/06/18 10:34:55;;;;;;;2.28;0.93;;;;;;;;;;5093401;28;20016;-56
2021/06/18 10:37:22;;;;;;;1.35;0.55;;;;;;;;;;5093191;28;20095;-56
2021/06/18 10:40:03;;;;;;;0.70;0.65;;;;;;;;;;5093351;28;20032;-56
2021/06/18 10:42:28;;;;;;;1.30;0.70;;;;;;;;;;5090704;28;20054;-56
2021/06/18 10:44:53;;;;;;;1.07;0.63;;;;;;;;;;5099460;28;20051;-56
2021/06/18 10:47:21;;;;;;;1.45;0.70;;;;;;;;;;5112768;28;20289;-54
2021/06/18 10:49:47;;;;;;;0.93;0.60;;;;;;;;;;5113199;28;20023;-57
2021/06/18 10:52:16;;;;;;;1.70;0.83;;;;;;;;;;5111149;28;20378;-55
2021/06/18 10:54:45;;;;;;;5.30;1.25;;;;;;;;;;5100415;28;20289;-57
2021/06/18 10:57:18;;;;;;;0.93;0.60;;;;;;;;;;5103865;28;20504;-57
2021/06/18 10:59:46;;;;;;;1.63;0.90;;;;;;;;;;5110167;28;20043;-58
2021/06/18 11:02:20;;;;;;;2.35;0.80;;;;;;;;;;5108472;28;20337;-57
2021/06/18 11:04:46;;;;;;;1.85;0.90;;;;;;;;;;5111118;28;20023;-56
2021/06/18 11:07:18;;;;;;;1.40;0.60;;;;;;;;;;5112163;28;20031;-57
2021/06/18 11:09:47;;;;;;;2.03;0.65;;;;;;;;;;5096558;28;20028;-57
2021/06/18 11:12:24;;;;;;;1.23;0.57;;;;;;;;;;5090396;28;20073;-58
2021/06/18 11:14:50;;;;;;;3.00;0.70;;;;;;;;;;5093366;28;20081;-55
2021/06/18 11:17:34;;;;;;;0.70;0.70;;;;;;;;;;5092258;28;20107;-55
2021/06/18 11:19:59;;;;;;;2.25;0.73;;;;;;;;;;5097998;28;20493;-56
2021/06/18 11:22:32;;;;;;;1.67;0.50;;;;;;;;;;5102280;28;20032;-57
2021/06/18 11:24:57;;;;;;;3.25;0.60;;;;;;;;;;5111685;28;20062;-58
2021/06/18 11:27:24;;;;;;;0.70;0.50;;;;;;;;;;5110905;28;20442;-55
2021/06/18 11:30:08;;;;;;;1.50;0.60;;;;;;;;;;5112317;28;20011;-56
2021/06/18 11:32:45;;;;;;;2.97;0.80;;;;;;;;;;5109048;28;20023;-58
2021/06/18 11:35:29;;;;;;;1.52;0.90;;;;;;;;;;5103483;28;20091;-56
2021/06/18 11:37:54;;;;;;;;;;;;;;;;;;5113306;28;20020;-55
2021/06/18 11:40:23;;;;;;;2.83;0.60;;;;;;;;;;5097142;28;19945;-57
2021/06/18 11:42:48;;;;;;;1.02;0.60;;;;;;;;;;5089733;28;20024;-55
2021/06/18 11:45:13;;;;;;;3.53;0.60;;;;;;;;;;5092227;28;20016;-55
2021/06/18 11:47:39;;;;;;;1.67;0.63;;;;;;;;;;5108995;28;20774;-56
2021/06/18 11:50:06;;;;;;;2.05;0.68;;;;;;;;;;5099239;28;20126;-57
2021/06/18 11:52:31;;;;;;;1.95;0.82;;;;;;;;;;5108301;28;20384;-55
2021/06/18 11:54:59;;;;;;;1.83;0.80;;;;;;;;;;5098578;28;20097;-56
2021/06/18 11:57:25;;;;;;;2.42;0.80;;;;;;;;;;5101918;28;20032;-57
2021/06/18 11:59:55;;;;;;;0.60;0.50;;;;;;;;;;5109271;28;20074;-57
2021/06/18 12:02:24;;;;;;;1.35;0.70;;;;;;;;;;5090348;28;20020;-56
2021/06/18 12:05:02;;;;;;;2.88;0.70;;;;;;;;;;5097771;28;20111;-57
2021/06/18 12:07:28;;;;;;;1.80;0.70;;;;;;;;;;5108651;28;20061;-57
2021/06/18 12:09:53;;;;;;;1.85;0.70;;;;;;;;;;5091310;28;20012;-57
2021/06/18 12:12:18;;;;;;;0.97;0.87;;;;;;;;;;5107400;28;20416;-57
2021/06/18 12:14:46;;;;;;;2.20;0.90;;;;;;;;;;5099138;28;20098;-57
2021/06/18 12:17:12;;;;;;;1.70;0.70;;;;;;;;;;5098279;28;20468;-58
2021/06/18 12:19:44;;;;;;;2.07;0.73;;;;;;;;;;5098671;28;20031;-58
2021/06/18 12:22:11;;;;;;;1.90;1.20;;;;;;;;;;5110711;28;20019;-58
2021/06/18 12:24:38;;;;;;;2.33;0.70;;;;;;;;;;5111215;28;20115;-57
2021/06/18 12:27:08;;;;;;;2.33;0.90;;;;;;;;;;5111603;28;20023;-55
2021/06/18 12:29:36;;;;;;;1.20;0.70;;;;;;;;;;5110339;28;20579;-56
2021/06/18 12:32:01;;;;;;;2.55;0.80;;;;;;;;;;5110107;28;20370;-58
2021/06/18 12:34:28;;;;;;;2.15;0.80;;;;;;;;;;5103370;28;20090;-57
2021/06/18 12:36:57;;;;;;;0.98;0.80;;;;;;;;;;5107760;28;20008;-58
2021/06/18 12:39:22;;;;;;;2.88;1.08;;;;;;;;;;5111193;28;20020;-57
2021/06/18 12:41:50;;;;;;;1.10;0.83;;;;;;;;;;5095599;28;20486;-58
2021/06/18 12:44:16;;;;;;;2.20;0.80;;;;;;;;;;5100756;28;20027;-57
2021/06/18 12:46:54;;;;;;;1.10;0.80;;;;;;;;;;5098171;28;20605;-58
2021/06/18 12:49:25;;;;;;;2.53;0.95;;;;;;;;;;5095116;28;20016;-55
2021/06/18 12:52:06;;;;;;;1.25;0.70;;;;;;;;;;5108959;28;20036;-55
2021/06/18 12:54:31;;;;;;;1.50;0.95;;;;;;;;;;5100944;28;20028;-56
2021/06/18 12:56:56;;;;;;;2.33;0.80;;;;;;;;;;5091438;28;20077;-56
2021/06/18 12:59:22;;;;;;;1.10;0.87;;;;;;;;;;5103604;28;20107;-55
2021/06/18 13:01:47;;;;;;;1.13;0.90;;;;;;;;;;5104824;28;20482;-56
2021/06/18 13:04:13;;;;;;;1.33;1.20;;;;;;;;;;5107095;28;20019;-57
2021/06/18 13:06:40;;;;;;;2.63;1.05;;;;;;;;;;5108348;28;20020;-56
2021/06/18 13:09:05;;;;;;;2.05;0.95;;;;;;;;;;5107526;28;20027;-56
2021/06/18 13:11:32;;;;;;;3.43;1.10;;;;;;;;;;5110860;28;20024;-57
2021/06/18 13:14:07;;;;;;;2.03;1.20;;;;;;;;;;5112306;28;20031;-58
2021/06/18 13:16:33;;;;;;;2.25;1.00;;;;;;;;;;5100885;28;20046;-57
2021/06/18 13:18:59;;;;;;;3.37;1.00;;;;;;;;;;5096031;28;20030;-57
2021/06/18 13:21:26;;;;;;;3.85;1.00;;;;;;;;;;5111770;28;20015;-57
2021/06/18 13:24:08;;;;;;;2.10;1.27;;;;;;;;;;5112013;28;20122;-57
2021/06/18 13:26:33;;;;;;;2.05;1.17;;;;;;;;;;5100974;28;20073;-58
2021/06/18 13:29:08;;;;;;;1.25;1.13;;;;;;;;;;5115122;28;20015;-57
2021/06/18 13:31:34;;;;;;;2.13;1.00;;;;;;;;;;5109137;28;20057;-58
2021/06/18 13:33:59;;;;;;;1.80;1.20;;;;;;;;;;5109137;28;20466;-58
2021/06/18 13:36:26;;;;;;;1.88;1.17;;;;;;;;;;5112109;28;20137;-58
2021/06/18 13:38:52;;;;;;;1.20;1.10;;;;;;;;;;5114200;28;20402;-58
2021/06/18 13:41:17;;;;;;;2.50;1.35;;;;;;;;;;5114974;28;20023;-57
2021/06/18 13:43:42;;;;;;;1.83;1.23;;;;;;;;;;5107591;28;20020;-54
2021/06/18 13:46:07;;;;;;;1.87;1.23;;;;;;;;;;5113371;28;20027;-58
2021/06/18 13:48:33;;;;;;;1.98;0.77;;;;;;;;;;5099573;28;20028;-57
2021/06/18 13:50:58;;;;;;;1.93;0.97;;;;;;;;;;5102019;28;20102;-57
2021/06/18 13:53:23;;;;;;;1.13;1.00;;;;;;;;;;5110913;28;20367;-57
2021/06/18 13:55:53;;;;;;;3.33;1.40;;;;;;;;;;5111994;28;20341;-57
2021/06/18 13:58:18;;;;;;;3.13;1.23;;;;;;;;;;5094436;28;20016;-57
2021/06/18 14:00:44;;;;;;;2.15;1.00;;;;;;;;;;5096639;28;20572;-57
2021/06/18 14:03:09;;;;;;;1.87;1.30;;;;;;;;;;5110514;28;20038;-56
2021/06/18 14:05:35;;;;;;;2.80;1.35;;;;;;;;;;5114535;28;20027;-54
2021/06/18 14:08:00;;;;;;;1.07;0.97;;;;;;;;;;5113315;28;20026;-56
2021/06/18 14:10:25;;;;;;;2.85;0.90;;;;;;;;;;5112940;28;20032;-57
2021/06/18 14:12:51;;;;;;;1.30;1.10;;;;;;;;;;5098570;28;20055;-57
2021/06/18 14:15:27;;;;;;;3.70;1.40;;;;;;;;;;5108883;28;20257;-57
2021/06/18 14:17:54;;;;;;;1.77;1.13;;;;;;;;;;5113968;28;20333;-57
2021/06/18 14:20:19;;;;;;;1.20;1.10;;;;;;;;;;5099734;28;20056;-57
2021/06/18 14:22:44;;;;;;;1.80;1.10;;;;;;;;;;5101679;28;20032;-56
2021/06/18 14:25:10;;;;;;;2.25;1.13;;;;;;;;;;5113978;28;20058;-57
2021/06/18 14:27:35;;;;;;;2.00;1.38;;;;;;;;;;5109735;27;20024;-56
2021/06/18 14:30:01;;;;;;;1.80;1.27;;;;;;;;;;5099405;28;20023;-57
2021/06/18 14:32:26;;;;;;;2.35;1.10;;;;;;;;;;5109830;28;20030;-57
2021/06/18 14:34:51;;;;;;;1.63;1.10;;;;;;;;;;5104640;28;20019;-57
2021/06/18 14:37:17;;;;;;;1.00;1.00;;;;;;;;;;5114011;28;20054;-57
2021/06/18 14:39:42;;;;;;;3.83;1.20;;;;;;;;;;5113798;28;20252;-57
2021/06/18 14:42:09;;;;;;;1.15;0.90;;;;;;;;;;5111487;28;20257;-56